Penang International Airport Penang MY
ICAO: WMKP
IATA: PEN
Category: Medium
Scheduled Services: Yes

Elevation: 11 ft
TransAlt. 11000 ft.

Airport Communications:
ATIS:126.4
GND:121.6
:121.7

WMKP Zoom In..

If you have problems with the map follow the link
https://www.worldairports.se/pages/airport.php?
ICAO=WMKP

Runways:

(A) RW 04 length 10997 ft width 151 ft
ILS 109.90 / hdg 42

(B) RW 22 length 10997 ft width 151 ft
---- / hdg 222

Location; WMKP
Day. 14 / Time. 08.00 Zulu
* QNH: 1007
* Temperature: 30° c. 86°f.
* Wind from: 250° Speed 07 kn.
Dewpoint: 25° c.
Visibility: 7000 m.
Clouds: Few 1700 ft.
Clouds: Scattered 14000 ft.
Clouds: Broken 27000 ft.
Conditions: Thunderstorm.

WMKP 140800Z 25007KT 210V290 7000 TS FEW017CB SCT140 BKN270 30/25 Q1007 TEMPO 6000 -TSRA


Wind From 250°
Speed 07 kn.

 
 
jpsmedia worldairports.se 2019   terms of use